• Join FlightAware (Why Join?)
  • Login
  • US Flag 
06:25AM EDT


 

Airport Tracker/Info


-or-


 

Live Flight TrackerFlight Track Log ✈ AMF1026 ✈ 29-Apr-2013 ✈ KALB - KCVG

Flight Track Log - Related Links

Times and Time Zones

All times are in EDT time to prevent confusion due to time zone crossing. See the AMF1026 flight status page for this flight to view local times or setup timezone preferences in your user account.

Time Position Orientation Groundspeed Altitude Reporting Facility
EDT Latitude Longitude Course Direction KTS MPH feet Rate Location/Type
09:21PM 42.7339 -73.8081 183° South 138 159 1,000  Level Boston Center
09:22PM 42.7069 -73.8103 183° South 172 198 2,000 1,800 Climbing Boston Center
09:23PM 42.7081 -73.8867 271° West 218 251 4,000 1,680 Climbing Boston Center
09:24PM 42.7217 -73.9519 286° West 213 245 5,200 1,440 Climbing Boston Center
09:25PM 42.7311 -74.0258 280° West 218 251 6,700 1,440 Climbing Boston Center
09:26PM 42.7219 -74.0933 260° West 199 229 8,100 1,200 Climbing Boston Center
09:27PM 42.7061 -74.1692 254° West 193 222 9,400 1,140 Climbing Boston Center
09:28PM 42.6903 -74.2422 254° West 193 222 10,700 1,260 Climbing Boston Center
09:29PM 42.6747 -74.3067 252° West 193 222 12,000 1,260 Climbing Boston Center
09:30PM 42.6589 -74.3797 254° West 188 216 13,300 1,140 Climbing Boston Center
09:31PM 42.6453 -74.4414 253° West 188 216 14,300 1,020 Climbing Boston Center
09:32PM 42.6358 -74.5117 260° West 181 208 15,400 780 Climbing Boston Center
09:33PM 42.6283 -74.5764 261° West 181 208 15,900 240 Climbing Boston Center
09:34PM 42.6058 -74.6603 250° West 196 226 15,900  Level Boston Center
09:35PM 42.5836 -74.7383 249° West 242 278 16,000  Climbing Boston Center
09:36PM 42.5564 -74.8331 249° West 252 290 15,900 -60 Descending Boston Center
09:37PM 42.5339 -74.9139 249° West 252 290 15,900  Level Boston Center
09:38PM 42.5092 -74.9975 248° West 246 283 15,900  Level Boston Center
09:39PM 42.4864 -75.0811 250° West 246 283 15,900  Level Boston Center
09:40PM 42.4781 -75.1681 263° West 246 283 15,900  Level Boston Center
09:42PM 42.4528 -75.3625 260° West 237 273 15,900  Level New York Center
09:43PM 42.4167 -75.4358 236° Southwest 230 265 16,000  Climbing New York Center
09:44PM 42.3783 -75.5089 235° Southwest 230 265 16,000  Level New York Center
09:45PM 42.3422 -75.5792 235° Southwest 237 273 16,000  Level New York Center
09:46PM 42.3100 -75.6581 241° Southwest 242 278 16,000  Level New York Center
09:47PM 42.2836 -75.7375 246° West 242 278 16,000  Level New York Center
09:48PM 42.2594 -75.8225 249° West 242 278 16,000  Level New York Center
09:49PM 42.2308 -75.9042 245° Southwest 242 278 16,000  Level New York Center
09:50PM 42.2061 -75.9919 249° West 247 284 16,000  Level New York Center
09:51PM 42.1775 -76.0792 246° West 247 284 16,000  Level New York Center
09:52PM 42.1528 -76.1639 249° West 247 284 16,000  Level New York Center
09:53PM 42.1239 -76.2481 245° Southwest 247 284 16,000  Level New York Center
09:54PM 42.0972 -76.3325 247° West 247 284 16,000  Level New York Center
09:55PM 42.0722 -76.4172 248° West 247 284 16,000  Level New York Center
09:56PM 42.0453 -76.5042 244° Southwest 247 284 16,000  Level New York Center
09:57PM 42.0398 -76.5059 244° Southwest  Level FlightAware Approximate
09:58PM 41.9953 -76.6758 249° West 247 284 16,000  Level New York Center
09:59PM 41.9681 -76.7597 246° West 247 284 16,000  Level New York Center
10:01PM 41.9083 -76.9361 246° West 247 284 16,000  Level Cleveland Center
10:02PM 41.8756 -77.0161 241° Southwest 247 284 16,000  Level Cleveland Center
10:03PM 41.8422 -77.0933 240° Southwest 252 290 16,000  Level Cleveland Center
10:04PM 41.8072 -77.1733 240° Southwest 252 290 16,000  Level Cleveland Center
10:05PM 41.7742 -77.2503 240° Southwest 252 290 16,000  Level Cleveland Center
10:06PM 41.7408 -77.3297 241° Southwest 252 290 16,000  Level Cleveland Center
10:07PM 41.7097 -77.4119 243° Southwest 252 290 16,000  Level Cleveland Center
10:08PM 41.6786 -77.4886 242° Southwest 252 290 16,000 -60 Level Cleveland Center
10:09PM 41.6472 -77.5625 240° Southwest 252 290 15,900 -60 Descending Cleveland Center
10:10PM 41.6181 -77.6417 244° Southwest 247 284 15,900  Level Cleveland Center
10:11PM 41.5908 -77.7233 246° West 247 284 15,900  Level Cleveland Center
10:12PM 41.5639 -77.8161 249° West 247 284 15,900  Level Cleveland Center
10:13PM 41.5431 -77.9003 252° West 242 278 15,900  Level Cleveland Center
10:14PM 41.5156 -77.9819 246° West 242 278 15,900  Level Cleveland Center
10:15PM 41.4883 -78.0689 247° West 247 284 15,900  Level Cleveland Center
10:16PM 41.4653 -78.1503 249° West 247 284 15,900  Level Cleveland Center
10:17PM 41.4419 -78.2369 250° West 247 284 15,900  Level Cleveland Center
10:18PM 41.4186 -78.3236 250° West 253 291 15,900  Level Cleveland Center
10:19PM 41.3994 -78.4100 254° West 253 291 15,900  Level Cleveland Center
10:20PM 41.3781 -78.4939 251° West 248 285 15,900  Level Cleveland Center
10:21PM 41.3631 -78.5772 257° West 248 285 15,900  Level Cleveland Center
10:22PM 41.3414 -78.6611 251° West 248 285 15,900  Level Cleveland Center
10:23PM 41.3219 -78.7472 253° West 248 285 15,900  Level Cleveland Center
10:24PM 41.3025 -78.8364 254° West 248 285 15,900  Level Cleveland Center
10:25PM 41.2831 -78.9197 253° West 248 285 15,900  Level Cleveland Center
10:26PM 41.2611 -79.0031 251° West 243 280 15,900  Level Cleveland Center
10:27PM 41.2414 -79.0864 253° West 243 280 15,900  Level Cleveland Center
10:28PM 41.2197 -79.1697 251° West 248 285 15,900  Level Cleveland Center
10:29PM 41.1936 -79.2531 247° West 248 285 15,900  Level Cleveland Center
10:30PM 41.1672 -79.3336 247° West 248 285 15,900  Level Cleveland Center
10:31PM 41.1347 -79.4142 242° Southwest 248 285 15,900  Level Cleveland Center
10:32PM 41.1042 -79.4919 242° Southwest 248 285 15,900  Level Cleveland Center
10:33PM 41.0736 -79.5694 242° Southwest 243 280 15,900  Level Cleveland Center
10:34PM 41.0411 -79.6472 241° Southwest 243 280 15,900  Level Cleveland Center
10:35PM 41.0103 -79.7247 242° Southwest 248 285 15,900  Level Cleveland Center
10:36PM 40.9775 -79.8047 242° Southwest 248 285 15,900  Level Cleveland Center
10:37PM 40.9447 -79.8822 241° Southwest 248 285 15,900  Level Cleveland Center
10:38PM 40.9139 -79.9594 242° Southwest 248 285 15,900  Level Cleveland Center
10:39PM 40.8808 -80.0367 241° Southwest 248 285 16,000  Climbing Cleveland Center
10:40PM 40.8500 -80.1139 242° Southwest 248 285 16,000  Level Cleveland Center
10:41PM 40.8233 -80.1933 246° West 248 285 16,000  Level Cleveland Center
10:42PM 40.7858 -80.2761 239° Southwest 248 285 16,000  Level Cleveland Center
10:43PM 40.7528 -80.3336 233° Southwest 248 285 16,000  Level Cleveland Center
10:44PM 40.7111 -80.4161 236° Southwest 248 285 16,000  Level Cleveland Center
10:45PM 40.6717 -80.4928 236° Southwest 248 285 16,000  Level Cleveland Center
10:46PM 40.6322 -80.5750 238° Southwest 248 285 16,000  Level Cleveland Center
10:47PM 40.5967 -80.6486 238° Southwest 248 285 16,000  Level Cleveland Center
10:48PM 40.5569 -80.7169 233° Southwest 241 277 16,000  Level Cleveland Center
10:49PM 40.5172 -80.7881 234° Southwest 241 277 16,000  Level Cleveland Center
10:50PM 40.4775 -80.8589 234° Southwest 241 277 16,000  Level Cleveland Center
10:51PM 40.4397 -80.9322 236° Southwest 241 277 16,000  Level Cleveland Center
10:52PM 40.4019 -81.0056 236° Southwest 241 277 16,000  Level Cleveland Center
10:53PM 40.3661 -81.0817 238° Southwest 247 284 16,000  Level Cleveland Center
10:54PM 40.3283 -81.1550 236° Southwest 247 284 16,000  Level Cleveland Center
10:55PM 40.2947 -81.2308 240° Southwest 247 284 16,000  Level Cleveland Center
10:56PM 40.2628 -81.3094 242° Southwest 247 284 16,000  Level Cleveland Center
10:58PM 40.2131 -81.4375 243° Southwest 245 282 16,000  Level Indianapolis Center
10:59PM 40.1836 -81.5164 244° Southwest 240 276 16,000  Level Indianapolis Center
11:00PM 40.1486 -81.6081 243° Southwest 240 276 16,000  Level Indianapolis Center
11:01PM 40.1175 -81.6864 243° Southwest 240 276 16,000  Level Indianapolis Center
11:02PM 40.0875 -81.7644 243° Southwest 237 273 16,000  Level Indianapolis Center
11:03PM 40.0606 -81.8353 244° Southwest 239 275 16,000  Level Indianapolis Center
11:04PM 40.0314 -81.9144 244° Southwest 240 276 16,000  Level Indianapolis Center
11:05PM 40.0008 -81.9911 243° Southwest 238 274 16,000  Level Indianapolis Center
11:06PM 39.9719 -82.0683 244° Southwest 236 272 16,000  Level Indianapolis Center
11:07PM 39.9369 -82.1589 243° Southwest 238 274 16,000  Level Indianapolis Center
11:08PM 39.9075 -82.2347 243° Southwest 235 270 16,000  Level Indianapolis Center
11:09PM 39.8781 -82.3122 244° Southwest 236 272 16,000  Level Indianapolis Center
11:10PM 39.8481 -82.3883 243° Southwest 234 269 16,000  Level Indianapolis Center
11:11PM 39.8206 -82.4667 245° Southwest 235 270 16,000  Level Indianapolis Center
11:12PM 39.7928 -82.5444 245° Southwest 234 269 16,000  Level Indianapolis Center
11:13PM 39.7669 -82.6242 247° West 237 273 16,000  Level Indianapolis Center
11:15PM 39.7411 -82.7025 247° West 235 270 16,000  Level Indianapolis Center
11:16PM 39.7153 -82.7814 247° West 235 270 16,000  Level Indianapolis Center
11:17PM 39.6897 -82.8622 248° West 240 276 16,000  Level Indianapolis Center
11:18PM 39.6633 -82.9400 246° West 236 272 16,000  Level Indianapolis Center
11:19PM 39.6369 -83.0203 247° West 238 274 16,000  Level Indianapolis Center
11:20PM 39.6086 -83.0983 245° Southwest 239 275 16,000  Level Indianapolis Center
11:21PM 39.5814 -83.1769 246° West 236 272 16,000  Level Indianapolis Center
11:22PM 39.5550 -83.2569 247° West 238 274 16,000  Level Indianapolis Center
11:23PM 39.5283 -83.3364 247° West 237 273 16,000 -660 Level Indianapolis Center
11:24PM 39.4989 -83.4211 246° West 252 290 14,700 -1,320 Descending Indianapolis Center
11:25PM 39.4706 -83.5117 248° West 266 306 13,400 -1,260 Descending Indianapolis Center
11:26PM 39.4447 -83.6025 250° West 265 305 12,200 -1,140 Descending Indianapolis Center
11:27PM 39.4172 -83.6894 248° West 258 297 11,100 -600 Descending Indianapolis Center
11:28PM 39.3897 -83.7714 247° West 249 287 11,100  Level Indianapolis Center
11:29PM 39.3511 -83.8653 242° Southwest 250 288 11,100  Level Indianapolis Center
11:30PM 39.3167 -83.9458 241° Southwest 252 290 11,100  Level Indianapolis Center
11:31PM 39.2833 -84.0261 242° Southwest 252 290 11,100  Level Indianapolis Center
11:32PM 39.2553 -84.1086 246° West 250 288 11,100 -720 Level Indianapolis Center
11:33PM 39.2286 -84.1933 248° West 252 290 9,700 -1,440 Descending Indianapolis Center
11:34PM 39.2081 -84.2797 253° West 251 289 8,200 -1,560 Descending Indianapolis Center
11:35PM 39.1953 -84.3653 259° West 244 281 6,600 -1,380 Descending Indianapolis Center
11:36PM 39.1853 -84.4497 261° West 238 274 5,400 -960 Descending Indianapolis Center
11:37PM 39.1803 -84.5283 265° West 224 258 4,700 -780 Descending Indianapolis Center
11:38PM 39.1767 -84.5931 266° West 220 253 3,900 -660 Descending Indianapolis Center
11:39PM 39.1667 -84.6667 260° West 174 200 3,400 -960 Descending Cincinnati TRACON
11:40PM 39.1333 -84.6833 201° Southwest 137 158 2,000 -960 Descending Cincinnati TRACON
11:41PM 39.1000 -84.6833 180° South 110 127 1,300 -600 Descending Cincinnati TRACON
11:43PM 39.0488 -84.6678 247° West  Level Estimated